Time;durP1;ratioP1;P1;durP2;ratioP2;P2;SDS_P1;SDS_P2;PMS_P1;PMS_P2;Temp;Humidity;BMP_temperature;BMP_pressure;BME280_temperature;BME280_humidity;BME280_pressure;Samples;Min_cycle;Max_cycle;Signal;HPM_P1;HPM_P2
2022/10/15 00:01:41;;;;;;;44.05;16.40;;;13.40;90.90;;;;;;5052636;28;20600;-38
2022/10/15 00:04:06;;;;;;;53.65;16.17;;;13.40;90.90;;;;;;5052954;28;20017;-40
2022/10/15 00:06:32;;;;;;;54.13;16.60;;;13.40;90.90;;;;;;5052564;28;20013;-42
2022/10/15 00:08:57;;;;;;;46.45;16.23;;;13.40;91.00;;;;;;5052481;28;20457;-37
2022/10/15 00:11:25;;;;;;;34.60;15.30;;;13.30;90.90;;;;;;5052552;28;20173;-36
2022/10/15 00:13:56;;;;;;;45.05;16.52;;;13.30;90.90;;;;;;5052328;28;20337;-35
2022/10/15 00:16:24;;;;;;;38.83;15.93;;;13.30;91.00;;;;;;5052544;28;20112;-38
2022/10/15 00:18:50;;;;;;;39.30;17.15;;;13.30;91.00;;;;;;5052582;28;20408;-38
2022/10/15 00:21:18;;;;;;;38.85;15.95;;;13.20;90.90;;;;;;5051239;28;20469;-36
2022/10/15 00:23:45;;;;;;;39.42;14.77;;;13.20;91.00;;;;;;5052495;28;20091;-28
2022/10/15 00:26:13;;;;;;;106.15;17.02;;;13.20;91.00;;;;;;5052487;28;20467;-29
2022/10/15 00:28:39;;;;;;;38.33;15.57;;;13.10;91.00;;;;;;5052044;28;20029;-28
2022/10/15 00:31:12;;;;;;;52.25;15.82;;;13.10;91.00;;;;;;5052031;28;20033;-26
2022/10/15 00:33:38;;;;;;;46.67;15.30;;;13.10;91.00;;;;;;5051941;28;20301;-30
2022/10/15 00:36:07;;;;;;;47.67;15.50;;;13.00;91.00;;;;;;5051848;28;20110;-27
2022/10/15 00:38:33;;;;;;;78.05;15.80;;;13.00;91.00;;;;;;5052023;28;20040;-27
2022/10/15 00:41:00;;;;;;;42.40;15.27;;;12.90;91.00;;;;;;5051725;28;20537;-27
2022/10/15 00:43:56;;;;;;;88.22;16.58;;;12.90;91.00;;;;;;5051983;28;20027;-28
2022/10/15 00:46:26;;;;;;;49.78;15.43;;;12.90;91.00;;;;;;5046838;28;20033;-28
2022/10/15 00:48:57;;;;;;;42.40;15.20;;;12.80;91.00;;;;;;5051702;28;20361;-26
2022/10/15 00:51:29;;;;;;;36.20;16.10;;;12.80;91.10;;;;;;5051547;28;20139;-28
2022/10/15 00:53:54;;;;;;;41.40;15.27;;;12.70;91.10;;;;;;5051651;28;20025;-37
2022/10/15 00:56:22;;;;;;;39.20;15.65;;;12.70;91.10;;;;;;5051544;28;20477;-39
2022/10/15 00:58:49;;;;;;;32.05;15.60;;;12.70;91.10;;;;;;5051564;28;20052;-30
2022/10/15 01:01:15;;;;;;;25.83;14.30;;;12.60;91.10;;;;;;5051807;28;20116;-28
2022/10/15 01:03:41;;;;;;;22.23;14.57;;;12.60;91.10;;;;;;5051380;28;20083;-38
2022/10/15 01:06:07;;;;;;;23.38;15.05;;;12.60;91.10;;;;;;5051386;28;20132;-27
2022/10/15 01:08:33;;;;;;;28.00;14.63;;;12.50;91.10;;;;;;5051650;28;20413;-30
2022/10/15 01:11:27;;;;;;;35.88;13.18;;;12.50;91.10;;;;;;5051806;28;20039;-26
2022/10/15 01:14:01;;;;;;;17.95;13.23;;;12.50;91.10;;;;;;5051222;28;20031;-28
2022/10/15 01:16:45;;;;;;;16.85;13.20;;;12.50;91.10;;;;;;5051289;28;20055;-24
2022/10/15 01:19:47;;;;;;;17.33;13.48;;;12.40;91.10;;;;;;5051614;28;20108;-27
2022/10/15 01:22:55;;;;;;;17.70;13.68;;;12.40;91.10;;;;;;5050290;28;20551;-32
2022/10/15 01:25:54;;;;;;;18.27;13.77;;;12.40;91.10;;;;;;5051545;28;20584;-25
2022/10/15 01:28:23;;;;;;;15.73;12.55;;;12.50;91.10;;;;;;5050983;28;20448;-40
2022/10/15 01:30:57;;;;;;;20.00;13.50;;;12.50;91.10;;;;;;5051543;28;20385;-35
2022/10/15 01:33:41;;;;;;;18.15;13.55;;;12.50;91.10;;;;;;5051558;28;20071;-37
2022/10/15 01:36:25;;;;;;;18.67;13.40;;;12.50;91.00;;;;;;5051445;28;20028;-28
2022/10/15 01:38:58;;;;;;;18.20;13.13;;;12.60;91.00;;;;;;5051443;28;20380;-42
2022/10/15 01:41:37;;;;;;;16.83;12.88;;;12.60;91.00;;;;;;5051362;28;20028;-43
2022/10/15 01:44:08;;;;;;;17.33;12.50;;;12.60;90.90;;;;;;5051337;28;20056;-41
2022/10/15 01:46:57;;;;;;;19.50;13.98;;;12.60;90.90;;;;;;5051394;28;20017;-25
2022/10/15 01:49:27;;;;;;;17.40;12.70;;;12.70;90.90;;;;;;5051154;28;20111;-25
2022/10/15 01:51:54;;;;;;;16.15;12.82;;;12.70;90.90;;;;;;5051466;28;20035;-28
2022/10/15 01:54:22;;;;;;;17.67;12.90;;;12.70;90.90;;;;;;5050888;28;20025;-29
2022/10/15 01:56:50;;;;;;;16.65;13.30;;;12.70;90.80;;;;;;5051201;28;20021;-28
2022/10/15 01:59:22;;;;;;;19.15;12.93;;;12.70;90.80;;;;;;5050671;28;20060;-29
2022/10/15 02:01:48;;;;;;;14.50;12.30;;;12.70;90.80;;;;;;5050852;28;20025;-40
2022/10/15 02:04:40;;;;;;;15.13;11.68;;;12.80;90.80;;;;;;5050685;28;20032;-42
2022/10/15 02:07:52;;;;;;;16.88;11.60;;;12.80;90.80;;;;;;5049483;28;20491;-43
2022/10/15 02:10:47;;;;;;;13.27;10.60;;;12.80;90.80;;;;;;5048328;28;20079;-42
2022/10/15 02:13:40;;;;;;;14.75;11.30;;;12.80;90.80;;;;;;5050435;28;20032;-38
2022/10/15 02:16:25;;;;;;;15.90;11.55;;;12.80;90.80;;;;;;5050432;28;20067;-30
2022/10/15 02:19:14;;;;;;;14.32;11.15;;;12.90;90.70;;;;;;5050304;28;20064;-28
2022/10/15 02:22:21;;;;;;;14.40;11.05;;;12.80;90.70;;;;;;5050371;28;20079;-27
2022/10/15 02:24:55;;;;;;;15.55;11.07;;;12.90;90.70;;;;;;5050332;28;20025;-27
2022/10/15 02:27:21;;;;;;;14.07;10.65;;;12.80;90.70;;;;;;5050569;28;20071;-29
2022/10/15 02:29:50;;;;;;;14.95;11.82;;;12.90;90.70;;;;;;5050507;28;20376;-26
2022/10/15 02:32:16;;;;;;;17.02;11.88;;;12.90;90.70;;;;;;5050203;28;20135;-32
2022/10/15 02:34:44;;;;;;;14.80;11.70;;;12.90;90.70;;;;;;5050157;28;20043;-30
2022/10/15 02:37:11;;;;;;;14.88;12.07;;;12.90;90.70;;;;;;5050161;28;20025;-28
2022/10/15 02:39:37;;;;;;;15.05;12.02;;;12.90;90.70;;;;;;5050415;28;20025;-35
2022/10/15 02:42:03;;;;;;;15.40;12.20;;;12.90;90.70;;;;;;5051348;28;20047;-39
2022/10/15 02:44:29;;;;;;;15.35;11.60;;;12.80;90.70;;;;;;5053997;28;20025;-37
2022/10/15 02:46:56;;;;;;;15.43;11.70;;;12.80;90.70;;;;;;5054088;28;20116;-27
2022/10/15 02:49:22;;;;;;;15.43;12.25;;;12.80;90.70;;;;;;5053961;28;20423;-27
2022/10/15 02:51:48;;;;;;;16.92;12.43;;;12.70;90.80;;;;;;5054389;28;20040;-26
2022/10/15 02:54:13;;;;;;;16.73;12.73;;;12.70;90.80;;;;;;5054095;28;20499;-32
2022/10/15 02:56:39;;;;;;;16.25;12.73;;;12.70;90.80;;;;;;5054052;28;20031;-27
2022/10/15 02:59:05;;;;;;;17.73;12.65;;;12.80;90.80;;;;;;5053749;28;20044;-28
2022/10/15 03:01:31;;;;;;;18.25;12.70;;;12.80;90.80;;;;;;5053990;28;20021;-26
2022/10/15 03:03:57;;;;;;;17.15;12.88;;;12.80;90.80;;;;;;5054188;28;20372;-26
2022/10/15 03:06:23;;;;;;;17.20;12.40;;;12.70;90.80;;;;;;5053767;28;20230;-27
2022/10/15 03:08:48;;;;;;;18.75;13.40;;;12.80;90.80;;;;;;5053785;28;20029;-27
2022/10/15 03:11:14;;;;;;;14.30;11.50;;;12.70;90.80;;;;;;5053718;28;20105;-28
2022/10/15 03:13:40;;;;;;;15.43;11.70;;;12.70;90.80;;;;;;5053434;28;20029;-37
2022/10/15 03:16:08;;;;;;;16.17;12.02;;;12.60;90.80;;;;;;5053933;28;20472;-40
2022/10/15 03:18:34;;;;;;;16.25;12.32;;;12.60;90.80;;;;;;5053271;28;20090;-40
2022/10/15 03:21:00;;;;;;;15.48;11.95;;;12.60;90.80;;;;;;5052034;28;20020;-37
2022/10/15 03:23:26;;;;;;;17.33;12.13;;;12.50;90.80;;;;;;5053346;28;20025;-43
2022/10/15 03:25:51;;;;;;;15.23;11.88;;;12.50;90.80;;;;;;5053537;28;20096;-48
2022/10/15 03:28:17;;;;;;;16.60;11.18;;;12.50;90.90;;;;;;5053413;28;20571;-41
2022/10/15 03:30:43;;;;;;;16.52;11.38;;;12.50;90.90;;;;;;5053098;28;20082;-42
2022/10/15 03:33:09;;;;;;;17.00;11.63;;;12.50;90.90;;;;;;5053017;28;20021;-44
2022/10/15 03:35:35;;;;;;;16.63;11.07;;;12.50;90.90;;;;;;5053129;28;20029;-41
2022/10/15 03:38:00;;;;;;;17.42;11.73;;;12.50;90.90;;;;;;5053138;28;20049;-41
2022/10/15 03:40:26;;;;;;;15.55;11.77;;;12.50;90.80;;;;;;5052966;28;20052;-43
2022/10/15 03:42:52;;;;;;;16.08;11.50;;;12.50;90.80;;;;;;5053002;28;20018;-40
2022/10/15 03:45:21;;;;;;;14.93;11.10;;;12.50;90.80;;;;;;5052937;28;20048;-42
2022/10/15 03:47:46;;;;;;;18.42;12.65;;;12.50;90.80;;;;;;5053171;28;20119;-42
2022/10/15 03:50:12;;;;;;;16.88;12.88;;;12.60;90.80;;;;;;5051296;28;20587;-36
2022/10/15 03:52:38;;;;;;;17.92;12.02;;;12.60;90.70;;;;;;5052577;28;20103;-40
2022/10/15 03:55:04;;;;;;;16.20;12.43;;;12.60;90.70;;;;;;5052813;28;20029;-40
2022/10/15 03:57:31;;;;;;;17.10;12.88;;;12.60;90.70;;;;;;5052763;28;20075;-38
2022/10/15 03:59:57;;;;;;;14.52;11.85;;;12.70;90.70;;;;;;5052449;28;20526;-42
2022/10/15 04:02:23;;;;;;;17.52;12.52;;;12.70;90.70;;;;;;5053111;28;20028;-41
2022/10/15 04:04:52;;;;;;;18.67;12.57;;;12.70;90.70;;;;;;5052937;28;20412;-39
2022/10/15 04:07:20;;;;;;;18.13;13.10;;;12.70;90.70;;;;;;5053060;28;20380;-37
2022/10/15 04:09:46;;;;;;;17.45;12.65;;;12.80;90.70;;;;;;5052727;28;20028;-41
2022/10/15 04:12:12;;;;;;;19.50;12.88;;;12.80;90.70;;;;;;5052777;28;20079;-37
2022/10/15 04:14:39;;;;;;;16.35;12.95;;;12.80;90.70;;;;;;5053081;28;20501;-40
2022/10/15 04:17:05;;;;;;;19.63;13.13;;;12.80;90.70;;;;;;5053006;28;20028;-38
2022/10/15 04:19:30;;;;;;;19.63;13.35;;;12.80;90.70;;;;;;5052534;28;20530;-36
2022/10/15 04:21:56;;;;;;;20.92;14.05;;;12.80;90.70;;;;;;5052482;28;20025;-36
2022/10/15 04:24:22;;;;;;;18.92;13.38;;;12.70;90.70;;;;;;5052141;28;20025;-39
2022/10/15 04:26:47;;;;;;;19.52;13.45;;;12.70;90.70;;;;;;5052089;28;20029;-36
2022/10/15 04:29:13;;;;;;;18.50;13.48;;;12.70;90.70;;;;;;5052006;28;20041;-35
2022/10/15 04:31:39;;;;;;;18.60;13.10;;;12.70;90.70;;;;;;5052159;28;20021;-39
2022/10/15 04:34:05;;;;;;;17.65;13.25;;;12.70;90.70;;;;;;5051900;28;20459;-35
2022/10/15 04:36:30;;;;;;;17.92;13.40;;;12.70;90.70;;;;;;5052048;28;20017;-38
2022/10/15 04:38:56;;;;;;;20.95;13.25;;;12.70;90.70;;;;;;5051706;28;20425;-37
2022/10/15 04:41:22;;;;;;;19.20;13.65;;;12.70;90.70;;;;;;5051714;28;20503;-37
2022/10/15 04:43:47;;;;;;;17.73;13.82;;;12.70;90.70;;;;;;5050666;28;20021;-35
2022/10/15 04:46:13;;;;;;;18.30;13.15;;;12.70;90.70;;;;;;5051852;28;20075;-37
2022/10/15 04:48:39;;;;;;;19.65;13.77;;;12.70;90.70;;;;;;5052107;28;20025;-34
2022/10/15 04:51:07;;;;;;;19.30;13.27;;;12.70;90.70;;;;;;5051675;28;20104;-34
2022/10/15 04:53:33;;;;;;;18.15;12.70;;;12.70;90.70;;;;;;5051649;28;20025;-37
2022/10/15 04:56:00;;;;;;;18.10;13.13;;;12.70;90.70;;;;;;5051589;28;20040;-43
2022/10/15 04:58:29;;;;;;;17.15;13.07;;;12.70;90.70;;;;;;5051375;28;20045;-36
2022/10/15 05:00:54;;;;;;;18.80;12.10;;;12.70;90.70;;;;;;5051650;28;20143;-37
2022/10/15 05:03:20;;;;;;;18.33;13.43;;;12.70;90.70;;;;;;5051005;28;20029;-37
2022/10/15 05:05:45;;;;;;;18.95;13.20;;;12.70;90.70;;;;;;5051532;28;20099;-27
2022/10/15 05:08:11;;;;;;;20.73;14.02;;;12.80;90.70;;;;;;5051317;28;20032;-27
2022/10/15 05:10:36;;;;;;;19.52;13.50;;;12.80;90.70;;;;;;5051633;28;20024;-36
2022/10/15 05:13:02;;;;;;;19.10;13.43;;;12.80;90.70;;;;;;5051358;28;20031;-28
2022/10/15 05:15:28;;;;;;;18.45;13.32;;;12.80;90.70;;;;;;5051539;28;20136;-35
2022/10/15 05:17:53;;;;;;;18.67;13.32;;;12.90;90.70;;;;;;5051275;28;20435;-36
2022/10/15 05:20:19;;;;;;;20.00;13.88;;;12.90;90.70;;;;;;5051166;28;20029;-28
2022/10/15 05:22:44;;;;;;;16.98;13.45;;;12.90;90.70;;;;;;5051164;28;20023;-27
2022/10/15 05:25:10;;;;;;;20.42;14.77;;;12.90;90.60;;;;;;5050926;28;20051;-29
2022/10/15 05:27:35;;;;;;;17.67;13.55;;;13.00;90.70;;;;;;5051185;28;20028;-26
2022/10/15 05:30:01;;;;;;;19.38;13.25;;;13.00;90.70;;;;;;5050961;28;20048;-28
2022/10/15 05:32:26;;;;;;;18.83;14.38;;;13.00;90.60;;;;;;5050830;28;20472;-25
2022/10/15 05:34:52;;;;;;;19.77;14.82;;;13.00;90.60;;;;;;5051154;28;20063;-27
2022/10/15 05:37:17;;;;;;;20.50;14.10;;;13.10;90.70;;;;;;5051057;28;20013;-25
2022/10/15 05:39:43;;;;;;;19.88;14.82;;;13.10;90.70;;;;;;5050920;28;20026;-28
2022/10/15 05:42:09;;;;;;;19.23;14.05;;;13.10;90.60;;;;;;5050817;28;20021;-25
2022/10/15 05:44:34;;;;;;;18.77;14.18;;;13.10;90.70;;;;;;5049662;28;20028;-27
2022/10/15 05:47:00;;;;;;;21.02;15.45;;;13.20;90.70;;;;;;5051015;28;20456;-25
2022/10/15 05:49:25;;;;;;;18.52;14.30;;;13.20;90.70;;;;;;5051005;28;20044;-37
2022/10/15 05:51:51;;;;;;;18.50;14.52;;;13.20;90.60;;;;;;5050682;28;20028;-37
2022/10/15 05:54:17;;;;;;;17.52;13.95;;;13.20;90.60;;;;;;5050982;28;20096;-36
2022/10/15 05:56:42;;;;;;;18.70;14.35;;;13.30;90.60;;;;;;5050741;28;20025;-35
2022/10/15 05:59:08;;;;;;;16.75;13.80;;;13.30;90.60;;;;;;5049131;28;20055;-37
2022/10/15 06:01:33;;;;;;;18.60;14.82;;;13.30;90.60;;;;;;5050828;28;20028;-31
2022/10/15 06:03:59;;;;;;;21.80;15.07;;;13.40;90.60;;;;;;5050751;28;20021;-27
2022/10/15 06:06:25;;;;;;;20.63;15.82;;;13.40;90.60;;;;;;5050535;28;20027;-27
2022/10/15 06:08:52;;;;;;;20.15;15.77;;;13.40;90.60;;;;;;5050831;28;20021;-30
2022/10/15 06:11:18;;;;;;;22.20;16.00;;;13.40;90.60;;;;;;5050538;28;20449;-26
2022/10/15 06:13:44;;;;;;;21.15;16.48;;;13.50;90.70;;;;;;5050437;28;20048;-26
2022/10/15 06:16:11;;;;;;;21.30;16.80;;;13.50;90.70;;;;;;5053662;28;20078;-27
2022/10/15 06:18:37;;;;;;;22.65;16.33;;;13.50;90.70;;;;;;5054770;28;20025;-27
2022/10/15 06:21:04;;;;;;;25.17;17.33;;;13.50;90.70;;;;;;5054513;28;20025;-26
2022/10/15 06:23:30;;;;;;;24.15;17.50;;;13.60;90.70;;;;;;5054488;28;20020;-34
2022/10/15 06:26:00;;;;;;;19.85;16.08;;;13.60;90.70;;;;;;5054567;28;20108;-35
2022/10/15 06:28:25;;;;;;;22.98;16.20;;;13.60;90.70;;;;;;5054858;28;20193;-37
2022/10/15 06:30:51;;;;;;;24.65;17.23;;;13.60;90.70;;;;;;5054922;28;20532;-37
2022/10/15 06:33:17;;;;;;;19.58;15.90;;;13.60;90.70;;;;;;5054486;28;20044;-28
2022/10/15 06:35:42;;;;;;;22.05;16.17;;;13.60;90.70;;;;;;5054887;28;20021;-29
2022/10/15 06:38:08;;;;;;;24.55;16.17;;;13.70;90.80;;;;;;5054603;28;20017;-29
2022/10/15 06:40:34;;;;;;;23.50;15.75;;;13.70;90.80;;;;;;5054183;28;20752;-27
2022/10/15 06:43:08;;;;;;;20.50;15.23;;;13.70;90.80;;;;;;5054278;28;20017;-27
2022/10/15 06:45:35;;;;;;;20.48;14.98;;;13.70;90.80;;;;;;5054317;28;20380;-28
2022/10/15 06:48:03;;;;;;;23.85;16.52;;;13.70;90.80;;;;;;5054135;28;20048;-26
2022/10/15 06:50:29;;;;;;;21.67;15.23;;;13.70;90.80;;;;;;5052996;28;20029;-30
2022/10/15 06:52:55;;;;;;;22.10;15.32;;;13.70;90.80;;;;;;5054272;28;20032;-28
2022/10/15 06:55:20;;;;;;;21.42;16.48;;;13.80;90.90;;;;;;5053831;28;20025;-30
2022/10/15 06:57:48;;;;;;;22.48;15.20;;;13.80;90.90;;;;;;5054069;28;20021;-25
2022/10/15 07:00:14;;;;;;;22.75;15.23;;;13.80;90.90;;;;;;5053829;28;20029;-28
2022/10/15 07:02:39;;;;;;;25.45;15.27;;;13.80;90.90;;;;;;5053862;28;20029;-29
2022/10/15 07:05:05;;;;;;;20.35;15.25;;;13.80;90.90;;;;;;5053919;28;20122;-37
2022/10/15 07:07:31;;;;;;;19.85;14.32;;;13.90;90.90;;;;;;5053917;28;20021;-39
2022/10/15 07:09:56;;;;;;;19.40;13.43;;;13.90;90.90;;;;;;5054120;28;20099;-42
2022/10/15 07:12:22;;;;;;;19.88;14.68;;;13.90;90.90;;;;;;5053803;28;20029;-38
2022/10/15 07:14:48;;;;;;;19.05;14.30;;;13.90;90.90;;;;;;5054061;28;20029;-39
2022/10/15 07:17:14;;;;;;;19.88;13.88;;;14.00;90.90;;;;;;5054080;28;20500;-40
2022/10/15 07:19:40;;;;;;;21.40;14.82;;;14.00;90.90;;;;;;5053612;28;20028;-32
2022/10/15 07:22:05;;;;;;;21.45;15.27;;;14.00;90.90;;;;;;5053915;28;20104;-32
2022/10/15 07:24:31;;;;;;;20.92;13.85;;;14.00;90.90;;;;;;5053518;28;20076;-32
2022/10/15 07:26:56;;;;;;;18.30;14.30;;;14.10;90.90;;;;;;5052724;28;20071;-33
2022/10/15 07:29:22;;;;;;;21.15;15.65;;;14.10;90.90;;;;;;5053487;28;20472;-31
2022/10/15 07:31:47;;;;;;;18.27;13.77;;;14.20;90.90;;;;;;5053101;28;20025;-24
2022/10/15 07:34:13;;;;;;;18.52;14.07;;;14.20;90.80;;;;;;5053381;28;20021;-32
2022/10/15 07:36:38;;;;;;;17.40;13.02;;;14.20;90.80;;;;;;5053468;28;20057;-28
2022/10/15 07:39:04;;;;;;;20.35;14.07;;;14.20;90.80;;;;;;5051803;28;20021;-27
2022/10/15 07:41:30;;;;;;;17.33;13.60;;;14.30;90.80;;;;;;5053170;28;20381;-25
2022/10/15 07:43:55;;;;;;;20.65;13.95;;;14.30;90.80;;;;;;5053243;28;20066;-30
2022/10/15 07:46:21;;;;;;;19.10;14.32;;;14.30;90.80;;;;;;5052905;28;20418;-34
2022/10/15 07:48:46;;;;;;;18.23;13.95;;;14.30;90.80;;;;;;5052805;28;20481;-37
2022/10/15 07:51:12;;;;;;;17.63;13.73;;;14.30;90.70;;;;;;5053099;28;20033;-35
2022/10/15 07:53:37;;;;;;;20.00;14.60;;;14.30;90.70;;;;;;5052716;28;20511;-40
2022/10/15 07:56:06;;;;;;;19.27;14.27;;;14.40;90.80;;;;;;5052609;28;20098;-35
2022/10/15 07:58:33;;;;;;;18.70;13.75;;;14.30;90.70;;;;;;5052490;28;20098;-40
2022/10/15 08:01:07;;;;;;;19.85;14.05;;;14.40;90.80;;;;;;5051118;28;20021;-37
2022/10/15 08:03:33;;;;;;;21.10;15.40;;;14.40;90.80;;;;;;5052691;28;20023;-40
2022/10/15 08:06:00;;;;;;;19.63;14.40;;;14.40;90.80;;;;;;5052725;28;20325;-37
2022/10/15 08:08:25;;;;;;;18.77;13.60;;;14.40;90.70;;;;;;5052371;28;20037;-35
2022/10/15 08:10:51;;;;;;;21.08;14.82;;;14.40;90.80;;;;;;5052825;28;20496;-35
2022/10/15 08:13:16;;;;;;;18.70;13.95;;;14.40;90.80;;;;;;5050861;28;20051;-31
2022/10/15 08:15:42;;;;;;;16.60;12.48;;;14.50;90.70;;;;;;5052275;28;20016;-32
2022/10/15 08:18:08;;;;;;;17.63;13.35;;;14.70;90.70;;;;;;5052618;28;20100;-34
2022/10/15 08:20:38;;;;;;;17.25;12.65;;;14.70;90.60;;;;;;5052442;28;20020;-32
2022/10/15 08:23:04;;;;;;;16.67;12.45;;;14.80;90.60;;;;;;5052209;28;20025;-32
2022/10/15 08:25:31;;;;;;;15.32;12.35;;;14.90;90.50;;;;;;5052430;28;20498;-32
2022/10/15 08:27:57;;;;;;;15.02;11.23;;;15.00;90.50;;;;;;5052368;28;20020;-32
2022/10/15 08:30:24;;;;;;;16.55;12.43;;;15.10;90.50;;;;;;5052570;28;20087;-33
2022/10/15 08:32:49;;;;;;;16.05;12.18;;;15.10;90.40;;;;;;5052325;28;20033;-32
2022/10/15 08:35:15;;;;;;;18.33;12.70;;;15.20;90.40;;;;;;5052107;28;20037;-31
2022/10/15 08:37:40;;;;;;;16.00;12.05;;;15.20;90.30;;;;;;5052066;28;20089;-34
2022/10/15 08:40:07;;;;;;;15.45;11.48;;;15.30;90.30;;;;;;5051279;28;20032;-32
2022/10/15 08:42:38;;;;;;;14.52;11.52;;;15.40;90.30;;;;;;5052320;28;20044;-33
2022/10/15 08:45:29;;;;;;;15.13;11.63;;;15.40;90.20;;;;;;5052145;28;20025;-33
2022/10/15 08:48:00;;;;;;;14.20;10.98;;;15.50;90.20;;;;;;5048932;28;20403;-32
2022/10/15 08:50:39;;;;;;;14.10;10.65;;;15.60;90.10;;;;;;5051928;28;20028;-32
2022/10/15 08:53:05;;;;;;;12.88;10.30;;;15.60;90.10;;;;;;5052196;28;20055;-32
2022/10/15 08:55:37;;;;;;;12.38;10.10;;;15.70;90.00;;;;;;5052415;28;20043;-34
2022/10/15 08:58:22;;;;;;;12.52;10.20;;;15.70;90.00;;;;;;5052119;28;20102;-33
2022/10/15 09:00:57;;;;;;;11.93;9.73;;;15.80;89.90;;;;;;5051987;28;20036;-33
2022/10/15 09:03:25;;;;;;;11.50;9.18;;;15.80;89.90;;;;;;5052037;28;20028;-32
2022/10/15 09:06:09;;;;;;;11.38;9.32;;;15.90;89.80;;;;;;5051779;28;20021;-35
2022/10/15 09:08:39;;;;;;;;;;;15.90;89.50;;;;;;5052571;28;20496;-25
2022/10/15 09:11:15;;;;;;;9.48;8.05;;;15.90;89.30;;;;;;5051628;28;19909;-25
2022/10/15 09:13:43;;;;;;;11.27;8.63;;;15.80;88.80;;;;;;5051663;28;20037;-41
2022/10/15 09:16:23;;;;;;;10.43;8.35;;;15.80;88.90;;;;;;5049959;28;20362;-42
2022/10/15 09:18:51;;;;;;;10.50;8.60;;;15.80;89.10;;;;;;5049863;28;20021;-42
2022/10/15 09:21:18;;;;;;;11.35;9.13;;;15.80;89.20;;;;;;5049871;28;20366;-40
2022/10/15 09:23:44;;;;;;;9.88;8.23;;;15.80;89.30;;;;;;5051534;28;20441;-38
2022/10/15 09:26:20;;;;;;;10.30;8.05;;;15.80;89.10;;;;;;5051607;28;20147;-42
2022/10/15 09:29:17;;;;;;;9.70;8.18;;;15.90;89.00;;;;;;5051133;28;20053;-26
2022/10/15 09:31:49;;;;;;;10.07;8.30;;;15.90;88.80;;;;;;5051117;28;20509;-48
2022/10/15 09:34:36;;;;;;;8.07;6.40;;;16.00;88.80;;;;;;5050839;28;20064;-28
2022/10/15 09:37:13;;;;;;;11.15;7.68;;;16.00;88.70;;;;;;5050879;28;20037;-29
2022/10/15 09:39:55;;;;;;;10.02;7.47;;;16.00;88.10;;;;;;5050835;28;20481;-27
2022/10/15 09:42:37;;;;;;;10.07;6.80;;;16.10;88.20;;;;;;5050731;28;20115;-36
2022/10/15 09:45:08;;;;;;;8.93;7.33;;;16.10;87.90;;;;;;5050737;28;20100;-37
2022/10/15 09:47:34;;;;;;;9.50;7.45;;;16.10;87.90;;;;;;5051193;28;20028;-42
2022/10/15 09:50:02;;;;;;;8.05;6.68;;;16.20;88.00;;;;;;5050939;28;20025;-41
2022/10/15 09:52:52;;;;;;;7.97;6.03;;;16.20;87.80;;;;;;5051161;28;20473;-41
2022/10/15 09:55:26;;;;;;;8.00;6.30;;;16.30;87.70;;;;;;5050907;28;20481;-38
2022/10/15 09:57:55;;;;;;;10.07;5.95;;;16.30;87.50;;;;;;5050724;28;20054;-43
2022/10/15 10:00:21;;;;;;;7.15;6.13;;;16.40;87.50;;;;;;5049184;28;20045;-41
2022/10/15 10:03:13;;;;;;;7.88;6.38;;;16.40;87.50;;;;;;5050723;28;20021;-39
2022/10/15 10:05:39;;;;;;;7.45;5.63;;;16.30;87.50;;;;;;5050640;28;20114;-40
2022/10/15 10:08:26;;;;;;;6.53;5.13;;;16.30;87.50;;;;;;5050550;28;20048;-36
2022/10/15 10:10:57;;;;;;;7.45;5.50;;;16.30;87.70;;;;;;5049442;28;20017;-39
2022/10/15 10:13:48;;;;;;;5.43;4.45;;;16.10;87.30;;;;;;5050731;28;20028;-40
2022/10/15 10:16:16;;;;;;;4.60;3.30;;;16.10;88.10;;;;;;5047794;28;20037;-42
2022/10/15 10:18:49;;;;;;;6.63;5.53;;;16.10;87.00;;;;;;5050464;28;20025;-40
2022/10/15 10:21:33;;;;;;;5.57;4.93;;;16.10;86.30;;;;;;5050853;28;20515;-38
2022/10/15 10:24:23;;;;;;;6.10;4.55;;;16.10;86.60;;;;;;5050934;28;20021;-42
2022/10/15 10:26:48;;;;;;;6.85;5.80;;;16.20;86.60;;;;;;5050537;28;20048;-33
2022/10/15 10:29:19;;;;;;;9.38;6.03;;;16.20;86.80;;;;;;5050835;28;20033;-32
2022/10/15 10:31:49;;;;;;;6.88;5.97;;;16.10;87.20;;;;;;5050557;28;20033;-33
2022/10/15 10:34:29;;;;;;;9.07;6.18;;;16.10;87.40;;;;;;5050659;28;20065;-32
2022/10/15 10:36:55;;;;;;;7.72;5.63;;;16.10;87.80;;;;;;5050654;28;20025;-27
2022/10/15 10:39:31;;;;;;;8.10;4.80;;;16.10;87.90;;;;;;5049395;28;20334;-27
2022/10/15 10:42:04;;;;;;;5.38;4.50;;;16.10;88.00;;;;;;5050568;28;20021;-28
2022/10/15 10:44:31;;;;;;;7.40;5.53;;;16.10;87.60;;;;;;5050967;28;20013;-28
2022/10/15 10:47:11;;;;;;;6.95;5.18;;;16.00;87.40;;;;;;5050395;28;20260;-43
2022/10/15 10:49:39;;;;;;;8.98;6.18;;;16.00;87.90;;;;;;5050717;28;20061;-44
2022/10/15 10:52:17;;;;;;;6.25;5.25;;;15.90;88.10;;;;;;5050806;28;20029;-43
2022/10/15 10:54:43;;;;;;;8.52;5.97;;;15.90;88.20;;;;;;5050468;28;20040;-42
2022/10/15 10:57:12;;;;;;;7.45;6.00;;;15.90;88.50;;;;;;5050501;28;20017;-44
2022/10/15 10:59:52;;;;;;;6.85;5.32;;;15.80;88.70;;;;;;5049960;28;20040;-42
2022/10/15 11:02:18;;;;;;;7.20;5.63;;;15.80;88.80;;;;;;5051490;28;20029;-41
2022/10/15 11:04:45;;;;;;;9.20;6.47;;;15.80;88.90;;;;;;5053908;28;20082;-33
2022/10/15 11:07:25;;;;;;;7.93;5.72;;;15.80;89.80;;;;;;5053845;28;20385;-32
2022/10/15 11:10:03;;;;;;;7.72;5.60;;;15.80;89.40;;;;;;5053948;28;20033;-26
2022/10/15 11:12:47;;;;;;;8.07;5.47;;;15.80;89.40;;;;;;5053890;28;20625;-31
2022/10/15 11:15:18;;;;;;;7.00;5.47;;;15.80;89.00;;;;;;5053638;28;20117;-26
2022/10/15 11:17:53;;;;;;;9.07;6.45;;;15.80;89.10;;;;;;5053707;28;20410;-32
2022/10/15 11:20:27;;;;;;;8.40;5.75;;;15.80;89.30;;;;;;5053700;28;20040;-32
2022/10/15 11:23:22;;;;;;;10.02;6.38;;;15.80;89.60;;;;;;5053580;28;20116;-44
2022/10/15 11:26:15;;;;;;;5.85;4.38;;;15.80;89.80;;;;;;5053582;28;20088;-39
2022/10/15 11:28:52;;;;;;;4.28;3.38;;;15.80;89.70;;;;;;5053193;28;20159;-38
2022/10/15 11:31:49;;;;;;;6.15;4.82;;;15.80;89.00;;;;;;5053542;28;20033;-41
2022/10/15 11:34:20;;;;;;;6.40;4.80;;;15.80;89.00;;;;;;5052861;28;20396;-41
2022/10/15 11:37:07;;;;;;;6.88;5.03;;;15.80;89.30;;;;;;5053410;28;20287;-43
2022/10/15 11:39:54;;;;;;;6.03;4.80;;;15.80;89.50;;;;;;5053418;28;20465;-40
2022/10/15 11:42:34;;;;;;;7.05;4.97;;;15.80;89.60;;;;;;5053174;28;20059;-45
2022/10/15 11:45:09;;;;;;;6.43;4.63;;;15.80;89.70;;;;;;5053444;28;20446;-42
2022/10/15 11:48:00;;;;;;;5.95;4.13;;;15.80;89.70;;;;;;5053524;28;20405;-42
2022/10/15 11:50:45;;;;;;;4.93;4.30;;;15.80;89.80;;;;;;5053140;28;20037;-42
2022/10/15 11:53:39;;;;;;;6.70;3.95;;;15.80;89.70;;;;;;5053397;28;20520;-43
2022/10/15 11:56:09;;;;;;;4.65;3.38;;;15.90;89.70;;;;;;5053559;28;20048;-43
2022/10/15 11:58:42;;;;;;;3.70;3.28;;;16.00;89.60;;;;;;5052246;28;20045;-43
2022/10/15 12:02:03;;;;;;;5.70;3.33;;;16.00;89.70;;;;;;5052967;28;20037;-27
2022/10/15 12:04:40;;;;;;;5.47;4.97;;;16.00;89.90;;;;;;5008652;28;20063;-34
2022/10/15 12:07:11;;;;;;;9.45;6.20;;;16.00;90.00;;;;;;5053229;28;20032;-30
2022/10/15 12:09:42;;;;;;;5.32;4.43;;;16.00;90.00;;;;;;5053599;28;20028;-41
2022/10/15 12:12:15;;;;;;;3.78;3.38;;;16.10;90.10;;;;;;5053156;28;20056;-42
2022/10/15 12:15:17;;;;;;;3.85;3.53;;;16.10;90.20;;;;;;5053060;28;20067;-44
2022/10/15 12:17:56;;;;;;;3.70;3.00;;;16.10;90.30;;;;;;5052734;28;20048;-43
2022/10/15 12:20:23;;;;;;;2.97;2.65;;;16.10;90.30;;;;;;5052605;28;20476;-40
2022/10/15 12:22:51;;;;;;;3.45;2.70;;;16.10;90.30;;;;;;5052412;28;20021;-38
2022/10/15 12:25:35;;;;;;;2.63;2.42;;;16.10;90.30;;;;;;5052420;28;20025;-37
2022/10/15 12:28:14;;;;;;;3.03;2.72;;;16.10;90.40;;;;;;5052741;28;20033;-39
2022/10/15 12:30:48;;;;;;;4.47;2.50;;;16.20;90.40;;;;;;5052585;28;20057;-31
2022/10/15 12:33:32;;;;;;;2.90;2.60;;;16.20;90.40;;;;;;5052194;28;20037;-29
2022/10/15 12:36:08;;;;;;;3.67;2.70;;;16.30;90.50;;;;;;5052418;28;20067;-29
2022/10/15 12:38:40;;;;;;;3.50;2.92;;;16.30;90.50;;;;;;5052301;28;20389;-26
2022/10/15 12:41:09;;;;;;;3.00;2.70;;;16.30;90.50;;;;;;5052108;28;20497;-28
2022/10/15 12:43:42;;;;;;;4.05;2.58;;;16.30;90.50;;;;;;5052285;28;20101;-27
2022/10/15 12:46:09;;;;;;;3.35;2.60;;;16.40;90.60;;;;;;5052046;28;20142;-26
2022/10/15 12:48:44;;;;;;;4.25;2.95;;;16.40;90.60;;;;;;5052230;28;20063;-29
2022/10/15 12:51:30;;;;;;;3.90;3.13;;;16.50;90.60;;;;;;5052049;28;20036;-28
2022/10/15 12:53:57;;;;;;;2.83;2.53;;;16.50;90.60;;;;;;5051987;28;20021;-42